Mc Cook Ben Nelson Regional Airport
KMCK : now visible

Airfield :











YOU CAN JOIN US ON...

 
LOGIN :

Register | Disclaimer

   EN    FR    IT 

 









Legend :    VFR   Marginal VFR   IFR   Intensive IFR   Very Intensive IFR
Visi :
Ceiling :
>= 8 km
>= 3000ft
5 to 8 km
1000 to 3000 ft
1500m to 5 km
500 to 1000 ft
800 to 1500m
200 to 500 ft
< 800m
< 200 ft
Symbols :   Thunderstorms  Fog  Heavy snow  Heavy precipitations  Wind > 20 kt






- Airport Elevation : 2583 ft


KMCK - Mc Cook Ben Nelson Regional

CURRENT METAR :
  • 041353Z AUTO 34009KT 8SM CLR 13/12 A3010 RMK AO2 SLP184 T01330117

EXPIRED METARs :
  • 041253Z AUTO 29003KT 6SM BR CLR 12/12 A3011 RMK AO2 SLP187 T01220117
  • 041153Z AUTO 29005KT 6SM BR FEW004 13/13 A3012 RMK AO2 SLP189 60015 70016 T01330133 10156 20133 53011
  • 041145Z AUTO 27006KT 6SM BR FEW004 13/13 A3012 RMK AO2 T01330128

TAF KMCK
Valid from the 04 at 12:00 until the 05 at 12:00 UTC


041120Z 0412/0512 VRB06KT P6SM VCSH BKN060
FM041400 VRB06KT P6SM BKN060
PROB30 0422/0502 VRB15G25KT 6SM -TSRA BKN050CB
FM051155 34012KT P6SM SCT220
KZDV FIR / North America



MET'MAP, your aeronautical weather chart ! - Copyright ORBIFLY December 2007 - Disclaimer

ORBIFLY MET'MAP TEAM :

Programming & Development : Alexandra Zaïnal
Original concept : Baudouin d'Aumeries
Technical & hardware support : Manuel Goepfert
Assistance : Marc-Olivier Méhu




SOURCES & CREDITS :

   NOAA       Earth
Advisory